sensor_id;sensor_type;location;lat;lon;timestamp;temperature;humidity
3300;DHT22;1662;49.310;8.134;2023-04-30T00:00:11;13.00;99.90
3300;DHT22;1662;49.310;8.134;2023-04-30T00:02:37;13.00;99.90
3300;DHT22;1662;49.310;8.134;2023-04-30T00:05:03;13.10;99.90
3300;DHT22;1662;49.310;8.134;2023-04-30T00:07:28;13.00;99.90
3300;DHT22;1662;49.310;8.134;2023-04-30T00:09:54;13.00;99.90
3300;DHT22;1662;49.310;8.134;2023-04-30T00:12:20;12.90;99.90
3300;DHT22;1662;49.310;8.134;2023-04-30T00:14:46;12.90;99.90
3300;DHT22;1662;49.310;8.134;2023-04-30T00:17:12;12.90;99.90
3300;DHT22;1662;49.310;8.134;2023-04-30T00:19:37;13.00;99.90
3300;DHT22;1662;49.310;8.134;2023-04-30T00:22:03;12.90;99.90
3300;DHT22;1662;49.310;8.134;2023-04-30T00:24:30;12.80;99.90
3300;DHT22;1662;49.310;8.134;2023-04-30T00:26:56;12.70;99.90
3300;DHT22;1662;49.310;8.134;2023-04-30T00:29:21;12.70;99.90
3300;DHT22;1662;49.310;8.134;2023-04-30T00:31:47;12.80;99.90
3300;DHT22;1662;49.310;8.134;2023-04-30T00:34:13;12.80;99.90
3300;DHT22;1662;49.310;8.134;2023-04-30T00:36:39;12.70;99.90
3300;DHT22;1662;49.310;8.134;2023-04-30T00:39:05;12.80;99.90
3300;DHT22;1662;49.310;8.134;2023-04-30T00:41:31;12.60;99.90
3300;DHT22;1662;49.310;8.134;2023-04-30T00:43:57;12.70;99.90
3300;DHT22;1662;49.310;8.134;2023-04-30T00:46:23;12.70;99.90
3300;DHT22;1662;49.310;8.134;2023-04-30T00:48:48;12.70;99.90
3300;DHT22;1662;49.310;8.134;2023-04-30T00:51:14;12.80;99.90
3300;DHT22;1662;49.310;8.134;2023-04-30T00:53:40;13.00;99.90
3300;DHT22;1662;49.310;8.134;2023-04-30T00:56:08;12.70;99.90
3300;DHT22;1662;49.310;8.134;2023-04-30T00:58:35;12.60;99.90
3300;DHT22;1662;49.310;8.134;2023-04-30T01:01:02;12.60;99.90
3300;DHT22;1662;49.310;8.134;2023-04-30T01:03:28;12.60;99.90
3300;DHT22;1662;49.310;8.134;2023-04-30T01:05:54;12.60;99.90
3300;DHT22;1662;49.310;8.134;2023-04-30T01:08:19;12.60;99.90
3300;DHT22;1662;49.310;8.134;2023-04-30T01:13:29;12.70;99.90
3300;DHT22;1662;49.310;8.134;2023-04-30T01:16:18;12.90;99.90
3300;DHT22;1662;49.310;8.134;2023-04-30T01:18:51;12.70;99.90
3300;DHT22;1662;49.310;8.134;2023-04-30T01:21:19;12.60;99.90
3300;DHT22;1662;49.310;8.134;2023-04-30T01:29:12;12.50;99.90
3300;DHT22;1662;49.310;8.134;2023-04-30T01:31:42;12.50;99.90
3300;DHT22;1662;49.310;8.134;2023-04-30T01:34:11;12.60;99.90
3300;DHT22;1662;49.310;8.134;2023-04-30T01:39:37;12.90;99.90
3300;DHT22;1662;49.310;8.134;2023-04-30T01:42:21;12.80;99.90
3300;DHT22;1662;49.310;8.134;2023-04-30T01:45:30;12.80;99.90
3300;DHT22;1662;49.310;8.134;2023-04-30T01:48:21;12.70;99.90
3300;DHT22;1662;49.310;8.134;2023-04-30T01:51:01;12.70;99.90
3300;DHT22;1662;49.310;8.134;2023-04-30T01:53:40;12.60;99.90
3300;DHT22;1662;49.310;8.134;2023-04-30T01:56:11;12.60;99.90
3300;DHT22;1662;49.310;8.134;2023-04-30T01:58:39;12.60;99.90
3300;DHT22;1662;49.310;8.134;2023-04-30T02:01:05;12.60;99.90
3300;DHT22;1662;49.310;8.134;2023-04-30T02:03:32;12.70;99.90
3300;DHT22;1662;49.310;8.134;2023-04-30T02:05:57;13.70;99.90
3300;DHT22;1662;49.310;8.134;2023-04-30T02:08:23;12.90;99.90
3300;DHT22;1662;49.310;8.134;2023-04-30T02:10:49;12.60;99.90
3300;DHT22;1662;49.310;8.134;2023-04-30T02:13:15;12.70;99.90
3300;DHT22;1662;49.310;8.134;2023-04-30T02:15:40;12.60;99.90
3300;DHT22;1662;49.310;8.134;2023-04-30T02:18:06;12.70;99.90
3300;DHT22;1662;49.310;8.134;2023-04-30T02:20:31;12.60;99.90
3300;DHT22;1662;49.310;8.134;2023-04-30T02:22:57;12.70;99.90
3300;DHT22;1662;49.310;8.134;2023-04-30T02:25:23;12.70;99.90
3300;DHT22;1662;49.310;8.134;2023-04-30T02:27:48;12.50;99.90
3300;DHT22;1662;49.310;8.134;2023-04-30T02:30:15;12.50;99.90
3300;DHT22;1662;49.310;8.134;2023-04-30T02:32:41;12.60;99.90
3300;DHT22;1662;49.310;8.134;2023-04-30T02:35:09;12.50;99.90
3300;DHT22;1662;49.310;8.134;2023-04-30T02:37:35;12.50;99.90
3300;DHT22;1662;49.310;8.134;2023-04-30T02:40:00;12.40;99.90
3300;DHT22;1662;49.310;8.134;2023-04-30T02:42:26;12.40;99.90
3300;DHT22;1662;49.310;8.134;2023-04-30T02:44:51;12.50;99.90
3300;DHT22;1662;49.310;8.134;2023-04-30T02:47:17;12.60;99.90
3300;DHT22;1662;49.310;8.134;2023-04-30T02:49:42;12.30;99.90
3300;DHT22;1662;49.310;8.134;2023-04-30T02:52:08;12.20;99.90
3300;DHT22;1662;49.310;8.134;2023-04-30T02:54:34;12.20;99.90
3300;DHT22;1662;49.310;8.134;2023-04-30T02:56:59;12.20;99.90
3300;DHT22;1662;49.310;8.134;2023-04-30T02:59:25;12.20;99.90
3300;DHT22;1662;49.310;8.134;2023-04-30T03:01:51;12.10;99.90
3300;DHT22;1662;49.310;8.134;2023-04-30T03:04:20;12.60;99.90
3300;DHT22;1662;49.310;8.134;2023-04-30T03:06:45;12.20;99.90
3300;DHT22;1662;49.310;8.134;2023-04-30T03:09:11;12.20;99.90
3300;DHT22;1662;49.310;8.134;2023-04-30T03:11:36;12.40;99.90
3300;DHT22;1662;49.310;8.134;2023-04-30T03:14:03;12.40;99.90
3300;DHT22;1662;49.310;8.134;2023-04-30T03:16:29;12.40;99.90
3300;DHT22;1662;49.310;8.134;2023-04-30T03:18:57;12.50;99.90
3300;DHT22;1662;49.310;8.134;2023-04-30T03:21:23;12.40;99.90
3300;DHT22;1662;49.310;8.134;2023-04-30T03:23:51;12.40;99.90
3300;DHT22;1662;49.310;8.134;2023-04-30T03:26:16;12.50;99.90
3300;DHT22;1662;49.310;8.134;2023-04-30T03:28:42;12.50;99.90
3300;DHT22;1662;49.310;8.134;2023-04-30T03:31:07;12.80;99.90
3300;DHT22;1662;49.310;8.134;2023-04-30T03:33:33;12.40;99.90
3300;DHT22;1662;49.310;8.134;2023-04-30T03:35:59;12.40;99.90
3300;DHT22;1662;49.310;8.134;2023-04-30T03:38:27;12.30;99.90
3300;DHT22;1662;49.310;8.134;2023-04-30T03:40:52;12.30;99.90
3300;DHT22;1662;49.310;8.134;2023-04-30T03:43:18;12.60;99.90
3300;DHT22;1662;49.310;8.134;2023-04-30T03:45:43;12.30;99.90
3300;DHT22;1662;49.310;8.134;2023-04-30T03:48:12;12.30;99.90
3300;DHT22;1662;49.310;8.134;2023-04-30T03:50:37;12.30;99.90
3300;DHT22;1662;49.310;8.134;2023-04-30T03:53:05;12.40;99.90
3300;DHT22;1662;49.310;8.134;2023-04-30T03:55:32;12.20;99.90
3300;DHT22;1662;49.310;8.134;2023-04-30T03:57:58;12.40;99.90
3300;DHT22;1662;49.310;8.134;2023-04-30T04:00:24;12.30;99.90
3300;DHT22;1662;49.310;8.134;2023-04-30T04:02:49;12.20;99.90
3300;DHT22;1662;49.310;8.134;2023-04-30T04:05:15;12.20;99.90
3300;DHT22;1662;49.310;8.134;2023-04-30T04:07:41;12.20;99.90
3300;DHT22;1662;49.310;8.134;2023-04-30T04:10:06;12.20;99.90
3300;DHT22;1662;49.310;8.134;2023-04-30T04:12:32;12.10;99.90
3300;DHT22;1662;49.310;8.134;2023-04-30T04:14:58;12.40;99.90
3300;DHT22;1662;49.310;8.134;2023-04-30T04:17:23;12.00;99.90
3300;DHT22;1662;49.310;8.134;2023-04-30T04:19:49;12.20;99.90
3300;DHT22;1662;49.310;8.134;2023-04-30T04:22:14;12.10;99.90
3300;DHT22;1662;49.310;8.134;2023-04-30T04:24:40;12.10;99.90
3300;DHT22;1662;49.310;8.134;2023-04-30T04:27:08;12.30;99.90
3300;DHT22;1662;49.310;8.134;2023-04-30T04:29:34;12.20;99.90
3300;DHT22;1662;49.310;8.134;2023-04-30T04:31:59;12.30;99.90
3300;DHT22;1662;49.310;8.134;2023-04-30T04:34:27;12.30;99.90
3300;DHT22;1662;49.310;8.134;2023-04-30T04:36:52;12.30;99.90
3300;DHT22;1662;49.310;8.134;2023-04-30T04:39:18;12.30;99.90
3300;DHT22;1662;49.310;8.134;2023-04-30T04:41:43;12.40;99.90
3300;DHT22;1662;49.310;8.134;2023-04-30T04:44:09;12.20;99.90
3300;DHT22;1662;49.310;8.134;2023-04-30T04:46:35;12.10;99.90
3300;DHT22;1662;49.310;8.134;2023-04-30T04:49:02;12.30;99.90
3300;DHT22;1662;49.310;8.134;2023-04-30T04:51:28;12.10;99.90
3300;DHT22;1662;49.310;8.134;2023-04-30T04:53:54;12.10;99.90
3300;DHT22;1662;49.310;8.134;2023-04-30T04:56:19;12.10;99.90
3300;DHT22;1662;49.310;8.134;2023-04-30T04:58:45;12.30;99.90
3300;DHT22;1662;49.310;8.134;2023-04-30T05:01:11;12.30;99.90
3300;DHT22;1662;49.310;8.134;2023-04-30T05:03:37;12.30;99.90
3300;DHT22;1662;49.310;8.134;2023-04-30T05:06:05;12.10;99.90
3300;DHT22;1662;49.310;8.134;2023-04-30T05:08:31;12.40;99.90
3300;DHT22;1662;49.310;8.134;2023-04-30T05:10:57;12.10;99.90
3300;DHT22;1662;49.310;8.134;2023-04-30T05:13:22;12.20;99.90
3300;DHT22;1662;49.310;8.134;2023-04-30T05:15:50;11.40;99.90
3300;DHT22;1662;49.310;8.134;2023-04-30T05:18:16;12.40;99.90
3300;DHT22;1662;49.310;8.134;2023-04-30T05:20:42;12.30;99.90
3300;DHT22;1662;49.310;8.134;2023-04-30T05:23:07;12.30;99.90
3300;DHT22;1662;49.310;8.134;2023-04-30T05:25:34;12.30;99.90
3300;DHT22;1662;49.310;8.134;2023-04-30T05:28:00;12.30;99.90
3300;DHT22;1662;49.310;8.134;2023-04-30T05:30:26;12.20;99.90
3300;DHT22;1662;49.310;8.134;2023-04-30T05:32:52;12.60;99.90
3300;DHT22;1662;49.310;8.134;2023-04-30T05:35:18;12.30;99.90
3300;DHT22;1662;49.310;8.134;2023-04-30T05:37:44;12.40;99.90
3300;DHT22;1662;49.310;8.134;2023-04-30T05:40:10;12.60;99.90
3300;DHT22;1662;49.310;8.134;2023-04-30T05:42:36;12.20;99.90
3300;DHT22;1662;49.310;8.134;2023-04-30T05:45:05;12.20;99.90
3300;DHT22;1662;49.310;8.134;2023-04-30T05:47:31;12.20;99.90
3300;DHT22;1662;49.310;8.134;2023-04-30T05:49:56;12.30;99.90
3300;DHT22;1662;49.310;8.134;2023-04-30T05:52:22;12.40;99.90
3300;DHT22;1662;49.310;8.134;2023-04-30T05:54:48;12.40;99.90
3300;DHT22;1662;49.310;8.134;2023-04-30T05:57:13;12.70;99.90
3300;DHT22;1662;49.310;8.134;2023-04-30T05:59:39;12.30;99.90
3300;DHT22;1662;49.310;8.134;2023-04-30T06:02:05;12.50;99.90
3300;DHT22;1662;49.310;8.134;2023-04-30T06:04:31;12.30;99.90
3300;DHT22;1662;49.310;8.134;2023-04-30T06:06:57;12.30;99.90
3300;DHT22;1662;49.310;8.134;2023-04-30T06:09:22;12.40;99.90
3300;DHT22;1662;49.310;8.134;2023-04-30T06:11:52;12.50;99.90
3300;DHT22;1662;49.310;8.134;2023-04-30T06:14:18;12.50;99.90
3300;DHT22;1662;49.310;8.134;2023-04-30T06:16:47;12.90;99.90
3300;DHT22;1662;49.310;8.134;2023-04-30T06:19:12;12.50;99.90
3300;DHT22;1662;49.310;8.134;2023-04-30T06:21:38;12.50;99.90
3300;DHT22;1662;49.310;8.134;2023-04-30T06:24:04;12.70;99.90
3300;DHT22;1662;49.310;8.134;2023-04-30T06:26:31;12.50;99.90
3300;DHT22;1662;49.310;8.134;2023-04-30T06:28:57;12.60;99.90
3300;DHT22;1662;49.310;8.134;2023-04-30T06:31:23;12.70;99.90
3300;DHT22;1662;49.310;8.134;2023-04-30T06:33:48;12.70;99.90
3300;DHT22;1662;49.310;8.134;2023-04-30T06:36:15;12.70;99.90
3300;DHT22;1662;49.310;8.134;2023-04-30T06:38:40;12.90;99.90
3300;DHT22;1662;49.310;8.134;2023-04-30T06:41:07;12.70;99.90
3300;DHT22;1662;49.310;8.134;2023-04-30T06:43:33;12.80;99.90
3300;DHT22;1662;49.310;8.134;2023-04-30T06:45:58;12.80;99.90
3300;DHT22;1662;49.310;8.134;2023-04-30T06:48:24;12.90;99.90
3300;DHT22;1662;49.310;8.134;2023-04-30T06:50:50;13.10;99.90
3300;DHT22;1662;49.310;8.134;2023-04-30T06:53:15;12.90;99.90
3300;DHT22;1662;49.310;8.134;2023-04-30T06:55:41;13.00;99.90
3300;DHT22;1662;49.310;8.134;2023-04-30T06:58:07;13.10;99.90
3300;DHT22;1662;49.310;8.134;2023-04-30T07:00:33;13.10;99.90
3300;DHT22;1662;49.310;8.134;2023-04-30T07:02:59;13.10;99.90
3300;DHT22;1662;49.310;8.134;2023-04-30T07:05:27;13.60;99.90
3300;DHT22;1662;49.310;8.134;2023-04-30T07:07:53;13.20;99.90
3300;DHT22;1662;49.310;8.134;2023-04-30T07:10:19;13.20;99.90
3300;DHT22;1662;49.310;8.134;2023-04-30T07:12:44;13.30;99.90
3300;DHT22;1662;49.310;8.134;2023-04-30T07:15:10;13.50;99.90
3300;DHT22;1662;49.310;8.134;2023-04-30T07:17:36;13.40;99.90
3300;DHT22;1662;49.310;8.134;2023-04-30T07:20:03;13.80;99.90
3300;DHT22;1662;49.310;8.134;2023-04-30T07:22:30;13.50;99.90
3300;DHT22;1662;49.310;8.134;2023-04-30T07:24:56;13.20;99.90
3300;DHT22;1662;49.310;8.134;2023-04-30T07:27:21;13.50;99.90
3300;DHT22;1662;49.310;8.134;2023-04-30T07:29:47;13.60;99.90
3300;DHT22;1662;49.310;8.134;2023-04-30T07:32:13;13.60;99.90
3300;DHT22;1662;49.310;8.134;2023-04-30T07:34:39;13.70;99.90
3300;DHT22;1662;49.310;8.134;2023-04-30T07:37:04;14.00;99.90
3300;DHT22;1662;49.310;8.134;2023-04-30T07:39:30;13.80;99.90
3300;DHT22;1662;49.310;8.134;2023-04-30T07:41:56;13.80;99.90
3300;DHT22;1662;49.310;8.134;2023-04-30T07:44:21;13.70;99.90
3300;DHT22;1662;49.310;8.134;2023-04-30T07:46:47;13.80;99.90
3300;DHT22;1662;49.310;8.134;2023-04-30T07:49:12;13.80;99.90
3300;DHT22;1662;49.310;8.134;2023-04-30T07:51:38;13.80;99.90
3300;DHT22;1662;49.310;8.134;2023-04-30T07:54:04;13.90;99.90
3300;DHT22;1662;49.310;8.134;2023-04-30T07:56:32;14.20;99.90
3300;DHT22;1662;49.310;8.134;2023-04-30T07:58:58;14.00;99.90
3300;DHT22;1662;49.310;8.134;2023-04-30T08:01:23;14.20;99.90
3300;DHT22;1662;49.310;8.134;2023-04-30T08:03:49;14.30;99.90
3300;DHT22;1662;49.310;8.134;2023-04-30T08:06:14;14.50;99.90
3300;DHT22;1662;49.310;8.134;2023-04-30T08:08:40;14.30;99.90
3300;DHT22;1662;49.310;8.134;2023-04-30T08:11:09;14.40;99.90
3300;DHT22;1662;49.310;8.134;2023-04-30T08:13:35;14.50;99.90
3300;DHT22;1662;49.310;8.134;2023-04-30T08:16:01;14.50;99.90
3300;DHT22;1662;49.310;8.134;2023-04-30T08:18:26;14.60;99.90
3300;DHT22;1662;49.310;8.134;2023-04-30T08:20:52;14.70;99.90
3300;DHT22;1662;49.310;8.134;2023-04-30T08:23:17;14.80;99.90
3300;DHT22;1662;49.310;8.134;2023-04-30T08:25:43;14.90;99.90
3300;DHT22;1662;49.310;8.134;2023-04-30T08:28:09;15.00;99.90
3300;DHT22;1662;49.310;8.134;2023-04-30T08:30:34;15.00;99.90
3300;DHT22;1662;49.310;8.134;2023-04-30T08:33:00;15.10;99.90
3300;DHT22;1662;49.310;8.134;2023-04-30T08:35:25;15.20;99.90
3300;DHT22;1662;49.310;8.134;2023-04-30T08:37:54;15.40;99.90
3300;DHT22;1662;49.310;8.134;2023-04-30T08:40:20;15.50;99.90
3300;DHT22;1662;49.310;8.134;2023-04-30T08:42:53;15.60;99.90
3300;DHT22;1662;49.310;8.134;2023-04-30T08:45:22;15.70;99.90
3300;DHT22;1662;49.310;8.134;2023-04-30T08:47:48;15.80;99.90
3300;DHT22;1662;49.310;8.134;2023-04-30T08:50:14;16.30;99.90
3300;DHT22;1662;49.310;8.134;2023-04-30T08:52:41;16.00;99.90
3300;DHT22;1662;49.310;8.134;2023-04-30T08:55:08;16.00;99.90
3300;DHT22;1662;49.310;8.134;2023-04-30T08:57:35;16.10;99.90
3300;DHT22;1662;49.310;8.134;2023-04-30T09:00:01;16.10;99.90
3300;DHT22;1662;49.310;8.134;2023-04-30T09:02:31;16.20;99.90
3300;DHT22;1662;49.310;8.134;2023-04-30T09:04:57;16.30;99.90
3300;DHT22;1662;49.310;8.134;2023-04-30T09:07:23;16.40;99.90
3300;DHT22;1662;49.310;8.134;2023-04-30T09:09:54;16.30;99.90
3300;DHT22;1662;49.310;8.134;2023-04-30T09:12:20;16.30;99.90
3300;DHT22;1662;49.310;8.134;2023-04-30T09:15:05;16.30;99.90
3300;DHT22;1662;49.310;8.134;2023-04-30T09:17:33;16.30;99.90
3300;DHT22;1662;49.310;8.134;2023-04-30T09:20:12;16.30;99.90
3300;DHT22;1662;49.310;8.134;2023-04-30T09:22:39;16.30;99.90
3300;DHT22;1662;49.310;8.134;2023-04-30T09:25:06;16.80;99.90
3300;DHT22;1662;49.310;8.134;2023-04-30T09:27:32;16.50;99.90
3300;DHT22;1662;49.310;8.134;2023-04-30T09:30:00;16.50;99.90
3300;DHT22;1662;49.310;8.134;2023-04-30T09:32:26;16.60;99.90
3300;DHT22;1662;49.310;8.134;2023-04-30T09:34:52;16.60;99.90
3300;DHT22;1662;49.310;8.134;2023-04-30T09:37:17;16.80;99.90
3300;DHT22;1662;49.310;8.134;2023-04-30T09:39:53;16.50;99.90
3300;DHT22;1662;49.310;8.134;2023-04-30T09:42:19;16.60;99.90
3300;DHT22;1662;49.310;8.134;2023-04-30T09:44:46;16.60;99.90
3300;DHT22;1662;49.310;8.134;2023-04-30T09:47:16;16.70;99.90
3300;DHT22;1662;49.310;8.134;2023-04-30T09:49:46;16.70;99.90
3300;DHT22;1662;49.310;8.134;2023-04-30T09:52:14;16.70;99.90
3300;DHT22;1662;49.310;8.134;2023-04-30T09:54:40;16.80;99.90
3300;DHT22;1662;49.310;8.134;2023-04-30T09:57:09;16.80;99.90
3300;DHT22;1662;49.310;8.134;2023-04-30T09:59:35;16.90;99.90
3300;DHT22;1662;49.310;8.134;2023-04-30T10:02:04;17.00;99.90
3300;DHT22;1662;49.310;8.134;2023-04-30T10:04:33;16.90;99.90
3300;DHT22;1662;49.310;8.134;2023-04-30T10:07:23;17.10;99.90
3300;DHT22;1662;49.310;8.134;2023-04-30T10:10:02;17.10;99.90
3300;DHT22;1662;49.310;8.134;2023-04-30T10:15:16;17.30;99.90
3300;DHT22;1662;49.310;8.134;2023-04-30T10:17:46;17.20;99.90
3300;DHT22;1662;49.310;8.134;2023-04-30T10:20:16;17.70;99.90
3300;DHT22;1662;49.310;8.134;2023-04-30T10:22:41;17.10;99.90
3300;DHT22;1662;49.310;8.134;2023-04-30T10:25:08;17.10;99.90
3300;DHT22;1662;49.310;8.134;2023-04-30T10:27:38;17.20;99.90
3300;DHT22;1662;49.310;8.134;2023-04-30T10:30:05;17.30;99.90
3300;DHT22;1662;49.310;8.134;2023-04-30T10:32:37;17.30;99.90
3300;DHT22;1662;49.310;8.134;2023-04-30T10:37:46;17.30;99.90
3300;DHT22;1662;49.310;8.134;2023-04-30T10:40:14;17.30;99.90
3300;DHT22;1662;49.310;8.134;2023-04-30T10:42:47;17.20;99.90
3300;DHT22;1662;49.310;8.134;2023-04-30T10:45:15;17.30;99.90
3300;DHT22;1662;49.310;8.134;2023-04-30T10:47:43;17.30;99.90
3300;DHT22;1662;49.310;8.134;2023-04-30T10:50:12;17.30;99.90
3300;DHT22;1662;49.310;8.134;2023-04-30T10:52:38;17.30;99.90
3300;DHT22;1662;49.310;8.134;2023-04-30T10:55:05;17.30;99.90
3300;DHT22;1662;49.310;8.134;2023-04-30T10:57:42;17.30;99.90
3300;DHT22;1662;49.310;8.134;2023-04-30T11:02:44;17.40;99.90
3300;DHT22;1662;49.310;8.134;2023-04-30T11:05:17;17.40;99.90
3300;DHT22;1662;49.310;8.134;2023-04-30T11:10:13;17.40;99.90
3300;DHT22;1662;49.310;8.134;2023-04-30T11:12:41;17.40;99.90
3300;DHT22;1662;49.310;8.134;2023-04-30T11:15:13;17.40;99.90
3300;DHT22;1662;49.310;8.134;2023-04-30T11:17:39;17.50;99.90
3300;DHT22;1662;49.310;8.134;2023-04-30T11:20:05;17.50;99.90
3300;DHT22;1662;49.310;8.134;2023-04-30T11:22:31;17.40;99.90
3300;DHT22;1662;49.310;8.134;2023-04-30T11:25:07;17.40;99.90
3300;DHT22;1662;49.310;8.134;2023-04-30T11:27:35;17.60;99.90
3300;DHT22;1662;49.310;8.134;2023-04-30T11:30:02;17.50;99.90
3300;DHT22;1662;49.310;8.134;2023-04-30T11:32:37;17.40;99.90
3300;DHT22;1662;49.310;8.134;2023-04-30T11:35:04;17.40;99.90
3300;DHT22;1662;49.310;8.134;2023-04-30T11:37:37;17.50;99.90
3300;DHT22;1662;49.310;8.134;2023-04-30T11:40:09;17.70;99.90
3300;DHT22;1662;49.310;8.134;2023-04-30T11:42:37;17.70;99.90
3300;DHT22;1662;49.310;8.134;2023-04-30T11:45:11;17.70;99.90
3300;DHT22;1662;49.310;8.134;2023-04-30T11:47:41;17.70;99.90
3300;DHT22;1662;49.310;8.134;2023-04-30T11:53:01;17.50;99.90
3300;DHT22;1662;49.310;8.134;2023-04-30T11:55:29;17.70;99.90
3300;DHT22;1662;49.310;8.134;2023-04-30T11:57:57;17.90;99.90
3300;DHT22;1662;49.310;8.134;2023-04-30T12:00:30;17.40;99.90
3300;DHT22;1662;49.310;8.134;2023-04-30T12:03:01;17.80;99.90
3300;DHT22;1662;49.310;8.134;2023-04-30T12:05:27;17.80;99.90
3300;DHT22;1662;49.310;8.134;2023-04-30T12:07:59;17.80;99.90
3300;DHT22;1662;49.310;8.134;2023-04-30T12:10:25;17.80;99.90
3300;DHT22;1662;49.310;8.134;2023-04-30T12:12:51;17.80;99.90
3300;DHT22;1662;49.310;8.134;2023-04-30T12:15:24;17.70;99.90
3300;DHT22;1662;49.310;8.134;2023-04-30T12:17:55;17.60;99.90
3300;DHT22;1662;49.310;8.134;2023-04-30T12:20:26;17.60;99.90
3300;DHT22;1662;49.310;8.134;2023-04-30T12:22:52;17.60;99.90
3300;DHT22;1662;49.310;8.134;2023-04-30T12:25:20;17.70;99.90
3300;DHT22;1662;49.310;8.134;2023-04-30T12:27:49;17.80;99.90
3300;DHT22;1662;49.310;8.134;2023-04-30T12:30:19;18.00;99.90
3300;DHT22;1662;49.310;8.134;2023-04-30T12:32:49;18.10;99.90
3300;DHT22;1662;49.310;8.134;2023-04-30T12:35:19;18.20;99.90
3300;DHT22;1662;49.310;8.134;2023-04-30T12:37:49;18.20;99.90
3300;DHT22;1662;49.310;8.134;2023-04-30T12:40:17;18.20;99.90
3300;DHT22;1662;49.310;8.134;2023-04-30T12:42:44;18.30;99.90
3300;DHT22;1662;49.310;8.134;2023-04-30T12:45:12;18.40;99.90
3300;DHT22;1662;49.310;8.134;2023-04-30T12:47:41;18.50;99.90
3300;DHT22;1662;49.310;8.134;2023-04-30T12:50:10;18.50;99.90
3300;DHT22;1662;49.310;8.134;2023-04-30T12:52:39;18.60;99.90
3300;DHT22;1662;49.310;8.134;2023-04-30T12:55:19;18.60;99.90
3300;DHT22;1662;49.310;8.134;2023-04-30T12:58:08;18.70;99.90
3300;DHT22;1662;49.310;8.134;2023-04-30T13:00:46;18.80;99.90
3300;DHT22;1662;49.310;8.134;2023-04-30T13:03:16;18.90;99.90
3300;DHT22;1662;49.310;8.134;2023-04-30T13:05:45;19.20;99.90
3300;DHT22;1662;49.310;8.134;2023-04-30T13:08:12;19.10;99.90
3300;DHT22;1662;49.310;8.134;2023-04-30T13:10:40;19.10;99.90
3300;DHT22;1662;49.310;8.134;2023-04-30T13:15:33;19.30;99.90
3300;DHT22;1662;49.310;8.134;2023-04-30T13:17:58;19.50;99.90
3300;DHT22;1662;49.310;8.134;2023-04-30T13:20:24;19.80;99.90
3300;DHT22;1662;49.310;8.134;2023-04-30T13:22:50;20.00;99.90
3300;DHT22;1662;49.310;8.134;2023-04-30T13:25:16;20.10;99.90
3300;DHT22;1662;49.310;8.134;2023-04-30T13:27:42;20.30;99.90
3300;DHT22;1662;49.310;8.134;2023-04-30T13:30:09;20.40;99.90
3300;DHT22;1662;49.310;8.134;2023-04-30T13:32:35;20.60;99.90
3300;DHT22;1662;49.310;8.134;2023-04-30T13:35:01;20.70;99.90
3300;DHT22;1662;49.310;8.134;2023-04-30T13:37:27;20.70;99.90
3300;DHT22;1662;49.310;8.134;2023-04-30T13:39:55;20.50;99.90
3300;DHT22;1662;49.310;8.134;2023-04-30T13:42:21;20.20;99.90
3300;DHT22;1662;49.310;8.134;2023-04-30T13:44:47;20.00;99.90
3300;DHT22;1662;49.310;8.134;2023-04-30T13:47:14;19.80;99.90
3300;DHT22;1662;49.310;8.134;2023-04-30T13:49:40;20.00;99.90
3300;DHT22;1662;49.310;8.134;2023-04-30T13:52:06;20.20;99.90
3300;DHT22;1662;49.310;8.134;2023-04-30T13:54:31;20.50;99.90
3300;DHT22;1662;49.310;8.134;2023-04-30T13:56:57;20.80;99.90
3300;DHT22;1662;49.310;8.134;2023-04-30T13:59:26;20.80;99.90
3300;DHT22;1662;49.310;8.134;2023-04-30T14:01:52;20.80;99.90
3300;DHT22;1662;49.310;8.134;2023-04-30T14:04:18;20.70;99.90
3300;DHT22;1662;49.310;8.134;2023-04-30T14:06:43;20.60;99.90
3300;DHT22;1662;49.310;8.134;2023-04-30T14:09:09;20.60;99.90
3300;DHT22;1662;49.310;8.134;2023-04-30T14:11:36;20.60;99.90
3300;DHT22;1662;49.310;8.134;2023-04-30T14:14:01;20.60;99.90
3300;DHT22;1662;49.310;8.134;2023-04-30T14:16:27;20.70;99.90
3300;DHT22;1662;49.310;8.134;2023-04-30T14:18:53;20.70;99.90
3300;DHT22;1662;49.310;8.134;2023-04-30T14:21:19;20.90;99.90
3300;DHT22;1662;49.310;8.134;2023-04-30T14:23:44;20.90;99.90
3300;DHT22;1662;49.310;8.134;2023-04-30T14:26:13;20.90;99.90
3300;DHT22;1662;49.310;8.134;2023-04-30T14:28:39;20.90;99.90
3300;DHT22;1662;49.310;8.134;2023-04-30T14:31:05;20.90;99.90
3300;DHT22;1662;49.310;8.134;2023-04-30T14:33:31;20.90;99.90
3300;DHT22;1662;49.310;8.134;2023-04-30T14:36:00;20.90;99.90
3300;DHT22;1662;49.310;8.134;2023-04-30T14:38:26;20.80;99.90
3300;DHT22;1662;49.310;8.134;2023-04-30T14:40:51;20.80;99.90
3300;DHT22;1662;49.310;8.134;2023-04-30T14:43:17;20.60;99.90
3300;DHT22;1662;49.310;8.134;2023-04-30T14:45:43;20.80;99.90
3300;DHT22;1662;49.310;8.134;2023-04-30T14:48:10;20.80;99.90
3300;DHT22;1662;49.310;8.134;2023-04-30T14:50:36;20.80;99.90
3300;DHT22;1662;49.310;8.134;2023-04-30T14:53:03;20.70;99.90
3300;DHT22;1662;49.310;8.134;2023-04-30T14:55:30;21.00;99.90
3300;DHT22;1662;49.310;8.134;2023-04-30T14:57:55;21.20;99.90
3300;DHT22;1662;49.310;8.134;2023-04-30T15:00:21;21.40;99.90
3300;DHT22;1662;49.310;8.134;2023-04-30T15:02:46;21.40;99.90
3300;DHT22;1662;49.310;8.134;2023-04-30T15:05:14;21.30;99.90
3300;DHT22;1662;49.310;8.134;2023-04-30T15:07:40;21.20;99.90
3300;DHT22;1662;49.310;8.134;2023-04-30T15:10:06;21.20;99.90
3300;DHT22;1662;49.310;8.134;2023-04-30T15:12:32;21.20;99.90
3300;DHT22;1662;49.310;8.134;2023-04-30T15:14:58;21.10;99.90
3300;DHT22;1662;49.310;8.134;2023-04-30T15:17:26;21.20;99.90
3300;DHT22;1662;49.310;8.134;2023-04-30T15:19:53;21.30;99.90
3300;DHT22;1662;49.310;8.134;2023-04-30T15:22:19;21.30;99.90
3300;DHT22;1662;49.310;8.134;2023-04-30T15:24:45;21.30;99.90
3300;DHT22;1662;49.310;8.134;2023-04-30T15:27:11;21.40;99.90
3300;DHT22;1662;49.310;8.134;2023-04-30T15:29:37;21.50;99.90
3300;DHT22;1662;49.310;8.134;2023-04-30T15:32:04;21.70;99.90
3300;DHT22;1662;49.310;8.134;2023-04-30T15:34:30;21.70;99.90
3300;DHT22;1662;49.310;8.134;2023-04-30T15:36:56;21.90;99.90
3300;DHT22;1662;49.310;8.134;2023-04-30T15:39:23;22.10;99.90
3300;DHT22;1662;49.310;8.134;2023-04-30T15:41:49;22.10;99.90
3300;DHT22;1662;49.310;8.134;2023-04-30T15:44:14;22.20;99.90
3300;DHT22;1662;49.310;8.134;2023-04-30T15:46:40;22.10;99.90
3300;DHT22;1662;49.310;8.134;2023-04-30T15:49:09;22.00;99.90
3300;DHT22;1662;49.310;8.134;2023-04-30T15:51:34;21.90;99.90
3300;DHT22;1662;49.310;8.134;2023-04-30T15:54:01;21.60;99.90
3300;DHT22;1662;49.310;8.134;2023-04-30T15:56:27;21.40;99.90
3300;DHT22;1662;49.310;8.134;2023-04-30T15:58:53;21.30;99.90
3300;DHT22;1662;49.310;8.134;2023-04-30T16:01:20;21.20;99.90
3300;DHT22;1662;49.310;8.134;2023-04-30T16:03:47;21.30;99.90
3300;DHT22;1662;49.310;8.134;2023-04-30T16:06:13;21.30;99.90
3300;DHT22;1662;49.310;8.134;2023-04-30T16:08:40;21.20;99.90
3300;DHT22;1662;49.310;8.134;2023-04-30T16:11:06;21.30;99.90
3300;DHT22;1662;49.310;8.134;2023-04-30T16:13:33;21.30;99.90
3300;DHT22;1662;49.310;8.134;2023-04-30T16:15:59;21.30;99.90
3300;DHT22;1662;49.310;8.134;2023-04-30T16:18:25;21.20;99.90
3300;DHT22;1662;49.310;8.134;2023-04-30T16:20:51;21.20;99.90
3300;DHT22;1662;49.310;8.134;2023-04-30T16:23:18;21.20;99.90
3300;DHT22;1662;49.310;8.134;2023-04-30T16:25:44;21.10;99.90
3300;DHT22;1662;49.310;8.134;2023-04-30T16:28:09;21.00;99.90